createdAt,value
2019-05-07T00:01:23.284Z,100116.03
2019-05-07T00:03:53.654Z,100108.24
2019-05-07T00:06:24.558Z,100111.20
2019-05-07T00:08:54.999Z,100110.41
2019-05-07T00:11:25.897Z,100107.38
2019-05-07T00:13:56.836Z,100107.86
2019-05-07T00:16:27.611Z,100104.62
2019-05-07T00:18:58.866Z,100103.59
2019-05-07T00:21:29.658Z,100109.63
2019-05-07T00:24:02.256Z,100105.03
2019-05-07T00:26:34.105Z,100104.61
2019-05-07T00:29:04.879Z,100106.44
2019-05-07T00:31:35.319Z,100103.73
2019-05-07T00:34:06.106Z,100105.20
2019-05-07T00:36:48.316Z,100104.03
2019-05-07T00:39:36.404Z,100104.53
2019-05-07T00:42:22.062Z,100106.42
2019-05-07T00:44:57.520Z,100110.91
2019-05-07T00:47:28.398Z,100108.34
2019-05-07T00:50:03.299Z,100112.80
2019-05-07T00:52:33.842Z,100113.95
2019-05-07T00:55:04.548Z,100105.28
2019-05-07T00:57:34.973Z,100106.85
2019-05-07T01:00:06.085Z,100105.61
2019-05-07T01:02:36.506Z,100107.27
2019-05-07T01:05:07.484Z,100107.12
2019-05-07T01:07:37.961Z,100103.33
2019-05-07T01:10:09.669Z,100103.66
2019-05-07T01:12:42.191Z,100096.54
2019-05-07T01:15:12.952Z,100102.33
2019-05-07T01:17:43.433Z,100109.28
2019-05-07T01:20:13.866Z,100104.95
2019-05-07T01:22:44.715Z,100099.30
2019-05-07T01:25:15.141Z,100096.88
2019-05-07T01:27:46.832Z,100095.05
2019-05-07T01:30:17.305Z,100094.13
2019-05-07T01:32:54.345Z,100094.59
2019-05-07T01:35:44.124Z,100094.59
2019-05-07T01:38:17.159Z,100091.97
2019-05-07T01:40:47.584Z,100100.63
2019-05-07T01:43:18.451Z,100101.73
2019-05-07T01:45:50.107Z,100100.45
2019-05-07T01:48:22.974Z,100102.88
2019-05-07T01:50:54.372Z,100106.30
2019-05-07T01:53:24.806Z,100110.05
2019-05-07T01:55:56.565Z,100108.66
2019-05-07T01:58:27.296Z,100106.97
2019-05-07T02:00:58.169Z,100109.78
2019-05-07T02:03:46.621Z,100116.66
2019-05-07T02:06:40.153Z,100113.89
2019-05-07T02:09:23.372Z,100122.25
2019-05-07T02:12:13.296Z,100112.02
2019-05-07T02:14:44.259Z,100123.36
2019-05-07T02:17:15.113Z,100121.90
2019-05-07T02:19:45.847Z,100122.03
2019-05-07T02:22:16.356Z,100118.90
2019-05-07T02:24:47.154Z,100125.89
2019-05-07T02:27:17.580Z,100128.19
2019-05-07T02:29:48.060Z,100124.20
2019-05-07T02:32:18.489Z,100128.76
2019-05-07T02:34:49.557Z,100128.05
2019-05-07T02:37:27.416Z,100125.02
2019-05-07T02:40:16.270Z,100126.86
2019-05-07T02:42:46.754Z,100126.75
2019-05-07T02:45:36.170Z,100132.52
2019-05-07T02:48:07.194Z,100135.30
2019-05-07T02:50:44.273Z,100133.59
2019-05-07T02:53:24.081Z,100131.20
2019-05-07T02:55:56.204Z,100140.23
2019-05-07T02:58:26.626Z,100136.89
2019-05-07T03:00:57.102Z,100136.89
2019-05-07T03:03:27.526Z,100143.05
2019-05-07T03:05:57.966Z,100139.41
2019-05-07T03:08:28.428Z,100146.03
2019-05-07T03:10:58.858Z,100146.54
2019-05-07T03:13:29.701Z,100148.95
2019-05-07T03:16:03.527Z,100146.19
2019-05-07T03:18:33.502Z,100144.95
2019-05-07T03:21:13.350Z,100143.39
2019-05-07T03:24:05.878Z,100142.46
2019-05-07T03:26:43.417Z,100148.23
2019-05-07T03:29:18.082Z,100149.31
2019-05-07T03:31:58.465Z,100147.52
2019-05-07T03:34:37.159Z,100143.77
2019-05-07T03:37:09.564Z,100152.33
2019-05-07T03:39:42.956Z,100149.91
2019-05-07T03:42:13.294Z,100151.94
2019-05-07T03:45:03.860Z,100154.25
2019-05-07T03:47:37.960Z,100163.50
2019-05-07T03:50:14.249Z,100155.21
2019-05-07T03:52:43.097Z,100154.96
2019-05-07T03:55:14.963Z,100154.62
2019-05-07T03:57:45.902Z,100149.66
2019-05-07T04:00:17.219Z,100147.74
2019-05-07T04:02:48.015Z,100155.70
2019-05-07T04:05:18.491Z,100151.97
2019-05-07T04:07:50.240Z,100155.36
2019-05-07T04:10:23.149Z,100155.83
2019-05-07T04:12:53.938Z,100156.90
2019-05-07T04:15:24.375Z,100158.59
2019-05-07T04:17:55.796Z,100157.64
2019-05-07T04:20:26.660Z,100161.38
2019-05-07T04:22:57.177Z,100165.10
2019-05-07T04:25:34.910Z,100167.14
2019-05-07T04:28:33.548Z,100166.41
2019-05-07T04:31:03.697Z,100166.98
2019-05-07T04:33:43.659Z,100170.50
2019-05-07T04:36:25.516Z,100166.52
2019-05-07T04:38:55.960Z,100178.23
2019-05-07T04:41:26.404Z,100174.38
2019-05-07T04:43:56.913Z,100170.98
2019-05-07T04:46:27.738Z,100174.02
2019-05-07T04:48:58.575Z,100170.28
2019-05-07T04:51:48.382Z,100177.27
2019-05-07T04:54:18.829Z,100175.23
2019-05-07T04:56:53.000Z,100182.35
2019-05-07T04:59:23.695Z,100182.25
2019-05-07T05:02:03.874Z,100181.27
2019-05-07T05:04:34.953Z,100179.56
2019-05-07T05:07:05.829Z,100185.46
2019-05-07T05:09:36.541Z,100181.26
2019-05-07T05:12:07.988Z,100174.97
2019-05-07T05:14:38.437Z,100182.92
2019-05-07T05:17:08.875Z,100185.69
2019-05-07T05:19:39.428Z,100182.31
2019-05-07T05:22:24.982Z,100183.02
2019-05-07T05:25:27.586Z,100185.72
2019-05-07T05:27:58.830Z,100186.09
2019-05-07T05:30:42.607Z,100183.87
2019-05-07T05:33:13.134Z,100184.80
2019-05-07T05:35:43.578Z,100183.39
2019-05-07T05:38:14.072Z,100185.31
2019-05-07T05:40:44.898Z,100186.83
2019-05-07T05:43:26.095Z,100193.61
2019-05-07T05:45:58.354Z,100189.21
2019-05-07T05:48:29.185Z,100193.88
2019-05-07T05:51:12.726Z,100195.11
2019-05-07T05:53:52.430Z,100196.30
2019-05-07T05:56:34.875Z,100197.16
2019-05-07T05:59:23.704Z,100198.73
2019-05-07T06:02:06.748Z,100197.27
2019-05-07T06:04:48.172Z,100198.00
2019-05-07T06:07:47.325Z,100200.36
2019-05-07T06:10:52.411Z,100196.67
2019-05-07T06:13:29.138Z,100192.45
2019-05-07T06:16:07.722Z,100202.09
2019-05-07T06:18:55.733Z,100200.16
2019-05-07T06:21:48.112Z,100197.87
2019-05-07T06:24:22.906Z,100199.47
2019-05-07T06:26:53.343Z,100196.59
2019-05-07T06:29:23.797Z,100208.50
2019-05-07T06:32:03.456Z,100206.73
2019-05-07T06:34:34.310Z,100205.56
2019-05-07T06:37:05.100Z,100204.80
2019-05-07T06:39:45.764Z,100203.11
2019-05-07T06:42:46.618Z,100209.25
2019-05-07T06:45:23.913Z,100213.31
2019-05-07T06:47:54.676Z,100204.30
2019-05-07T06:50:25.413Z,100212.87
2019-05-07T06:52:55.901Z,100212.30
2019-05-07T06:55:26.681Z,100210.23
2019-05-07T06:57:57.113Z,100207.67
2019-05-07T07:00:46.368Z,100204.39
2019-05-07T07:03:32.831Z,100212.20
2019-05-07T07:06:32.181Z,100214.67
2019-05-07T07:09:22.473Z,100216.84
2019-05-07T07:11:57.534Z,100211.70
2019-05-07T07:14:27.966Z,100213.31
2019-05-07T07:16:58.741Z,100211.15
2019-05-07T07:19:29.230Z,100207.56
2019-05-07T07:21:59.667Z,100208.20
2019-05-07T07:24:32.799Z,100204.25
2019-05-07T07:27:03.062Z,100207.02
2019-05-07T07:29:35.191Z,100201.41
2019-05-07T07:32:06.676Z,100196.94
2019-05-07T07:34:43.569Z,100202.44
2019-05-07T07:37:36.378Z,100203.84
2019-05-07T07:40:29.214Z,100198.58
2019-05-07T07:42:59.644Z,100191.94
2019-05-07T07:45:32.254Z,100193.42
2019-05-07T07:48:02.466Z,100190.67
2019-05-07T07:50:33.230Z,100193.16
2019-05-07T07:53:03.732Z,100192.17
2019-05-07T07:55:42.692Z,100190.51
2019-05-07T07:58:32.184Z,100188.20
2019-05-07T08:01:12.229Z,100180.72
2019-05-07T08:03:42.799Z,100189.95
2019-05-07T08:06:13.660Z,100185.20
2019-05-07T08:08:45.028Z,100184.80
2019-05-07T08:11:15.457Z,100185.97
2019-05-07T08:13:46.562Z,100188.31
2019-05-07T08:16:17.406Z,100179.89
2019-05-07T08:18:48.261Z,100186.52
2019-05-07T08:21:18.689Z,100177.57
2019-05-07T08:23:49.589Z,100182.17
2019-05-07T08:26:21.907Z,100179.48
2019-05-07T08:28:52.457Z,100172.70
2019-05-07T08:31:37.865Z,100178.16
2019-05-07T08:34:23.098Z,100176.94
2019-05-07T08:36:53.597Z,100182.52
2019-05-07T08:39:25.212Z,100175.06
2019-05-07T08:41:56.160Z,100174.88
2019-05-07T08:44:32.548Z,100177.38
2019-05-07T08:47:15.377Z,100175.67
2019-05-07T08:49:46.176Z,100175.28
2019-05-07T08:52:16.774Z,100171.11
2019-05-07T08:54:47.653Z,100174.59
2019-05-07T08:57:18.186Z,100174.94
2019-05-07T08:59:58.488Z,100171.70
2019-05-07T09:02:22.240Z,100167.36
2019-05-07T09:04:52.900Z,100165.22
2019-05-07T09:07:23.333Z,100163.97
2019-05-07T09:09:53.823Z,100161.36
2019-05-07T09:12:24.248Z,100159.78
2019-05-07T09:14:54.683Z,100154.66
2019-05-07T09:17:25.549Z,100151.36
2019-05-07T09:19:55.981Z,100152.41
2019-05-07T09:22:27.189Z,100147.75
2019-05-07T09:24:57.764Z,100149.11
2019-05-07T09:27:37.070Z,100144.23
2019-05-07T09:30:42.031Z,100146.24
2019-05-07T09:33:37.294Z,100143.02
2019-05-07T09:36:12.418Z,100150.19
2019-05-07T09:38:55.237Z,100147.73
2019-05-07T09:41:27.386Z,100145.27
2019-05-07T09:43:59.059Z,100144.45
2019-05-07T09:46:29.923Z,100142.08
2019-05-07T09:49:02.931Z,100138.99
2019-05-07T09:51:32.537Z,100136.50
2019-05-07T09:54:03.359Z,100132.02
2019-05-07T09:56:34.040Z,100133.17
2019-05-07T09:59:04.576Z,100133.81
2019-05-07T10:01:35.325Z,100133.85
2019-05-07T10:04:06.020Z,100129.82
2019-05-07T10:06:36.454Z,100127.14
2019-05-07T10:09:07.685Z,100123.09
2019-05-07T10:11:47.822Z,100128.28
2019-05-07T10:14:18.356Z,100132.67
2019-05-07T10:17:16.909Z,100122.61
2019-05-07T10:19:47.817Z,100119.89
2019-05-07T10:22:18.257Z,100120.70
2019-05-07T10:24:48.737Z,100115.53
2019-05-07T10:27:19.209Z,100110.87
2019-05-07T10:29:49.843Z,100114.25
2019-05-07T10:32:20.333Z,100115.05
2019-05-07T10:34:52.498Z,100109.34
2019-05-07T10:37:23.029Z,100107.52
2019-05-07T10:39:54.346Z,100110.37
2019-05-07T10:42:25.045Z,100106.02
2019-05-07T10:45:21.920Z,100104.66
2019-05-07T10:48:23.254Z,100106.33
2019-05-07T10:50:55.460Z,100107.66
2019-05-07T10:53:26.218Z,100101.29
2019-05-07T10:55:56.650Z,100100.63
2019-05-07T10:58:27.524Z,100097.95
2019-05-07T11:00:58.367Z,100096.24
2019-05-07T11:03:29.269Z,100093.16
2019-05-07T11:05:59.854Z,100084.91
2019-05-07T11:08:32.729Z,100093.45
2019-05-07T11:11:03.131Z,100085.75
2019-05-07T11:13:33.669Z,100080.65
2019-05-07T11:16:11.796Z,100071.52
2019-05-07T11:18:45.374Z,100076.26
2019-05-07T11:21:16.229Z,100067.59
2019-05-07T11:23:46.965Z,100066.55
2019-05-07T11:26:17.448Z,100066.00
2019-05-07T11:28:47.890Z,100063.67
2019-05-07T11:31:18.331Z,100061.71
2019-05-07T11:33:48.839Z,100061.90
2019-05-07T11:36:19.326Z,100056.29
2019-05-07T11:38:49.757Z,100058.42
2019-05-07T11:41:27.886Z,100053.56
2019-05-07T11:44:23.044Z,100059.66
2019-05-07T11:47:22.531Z,100049.66
2019-05-07T11:50:11.998Z,100046.23
2019-05-07T11:52:46.873Z,100044.74
2019-05-07T11:55:17.317Z,100039.64
2019-05-07T11:57:47.759Z,100033.91
2019-05-07T12:00:26.743Z,100036.91
2019-05-07T12:02:57.564Z,100035.70
2019-05-07T12:05:28.003Z,100035.56
2019-05-07T12:07:58.865Z,100041.73
2019-05-07T12:10:29.297Z,100036.78
2019-05-07T12:13:02.179Z,100029.38
2019-05-07T12:15:32.593Z,100032.31
2019-05-07T12:18:03.308Z,100021.92
2019-05-07T12:20:34.053Z,100027.77
2019-05-07T12:23:04.542Z,100015.48
2019-05-07T12:25:34.978Z,100015.84
2019-05-07T12:28:05.843Z,100023.16
2019-05-07T12:30:54.492Z,100015.09
2019-05-07T12:33:56.210Z,100013.01
2019-05-07T12:36:26.994Z,100012.23
2019-05-07T12:38:57.814Z,100010.69
2019-05-07T12:41:33.645Z,100011.57
2019-05-07T12:44:07.319Z,100003.09
2019-05-07T12:46:38.300Z,99995.20
2019-05-07T12:49:08.736Z,99998.75
2019-05-07T12:52:03.076Z,99991.97
2019-05-07T12:54:42.192Z,99988.14
2019-05-07T12:57:13.035Z,99990.44
2019-05-07T12:59:43.469Z,99987.52
2019-05-07T13:02:42.059Z,99981.50
2019-05-07T13:05:11.879Z,99975.88
2019-05-07T13:07:53.698Z,99979.08
2019-05-07T13:10:24.307Z,99975.91
2019-05-07T13:12:54.738Z,99972.31
2019-05-07T13:15:28.048Z,99979.02
2019-05-07T13:17:58.390Z,99966.92
2019-05-07T13:20:28.833Z,99962.52
2019-05-07T13:22:59.313Z,99965.88
2019-05-07T13:25:29.743Z,99964.33
2019-05-07T13:28:02.475Z,99958.83
2019-05-07T13:30:32.540Z,99955.32
2019-05-07T13:33:06.127Z,99951.19
2019-05-07T13:35:37.061Z,99948.44
2019-05-07T13:38:25.967Z,99948.18
2019-05-07T13:41:27.459Z,99949.44
2019-05-07T13:44:15.799Z,99945.14
2019-05-07T13:46:47.678Z,99940.83
2019-05-07T13:49:21.825Z,99932.28
2019-05-07T13:52:03.259Z,99931.45
2019-05-07T13:54:24.200Z,99933.09
2019-05-07T13:56:54.626Z,99925.73
2019-05-07T13:59:25.294Z,99926.88
2019-05-07T14:02:04.997Z,99921.23
2019-05-07T14:04:35.952Z,99924.16
2019-05-07T14:07:06.683Z,99921.69
2019-05-07T14:09:37.119Z,99920.68
2019-05-07T14:12:08.072Z,99912.46
2019-05-07T14:14:38.805Z,99906.94
2019-05-07T14:17:09.544Z,99904.26
2019-05-07T14:19:42.264Z,99905.86
2019-05-07T14:22:18.341Z,99898.33
2019-05-07T14:24:44.981Z,99904.23
2019-05-07T14:27:15.547Z,99899.63
2019-05-07T14:29:46.256Z,99896.61
2019-05-07T14:32:31.797Z,99899.19
2019-05-07T14:35:26.766Z,99900.80
2019-05-07T14:38:04.632Z,99895.73
2019-05-07T14:40:35.500Z,99892.70
2019-05-07T14:43:12.604Z,99891.94
2019-05-07T14:45:43.069Z,99888.37
2019-05-07T14:48:13.982Z,99889.52
2019-05-07T14:50:44.871Z,99886.63
2019-05-07T14:53:15.762Z,99882.78
2019-05-07T14:55:46.193Z,99878.20
2019-05-07T14:58:17.155Z,99882.30
2019-05-07T15:00:48.637Z,99881.39
2019-05-07T15:03:20.323Z,99878.63
2019-05-07T15:05:52.577Z,99876.14
2019-05-07T15:08:23.304Z,99872.52
2019-05-07T15:10:53.738Z,99872.55
2019-05-07T15:13:24.235Z,99871.81
2019-05-07T15:15:55.615Z,99873.31
2019-05-07T15:18:48.053Z,99874.44
2019-05-07T15:21:18.745Z,99867.37
2019-05-07T15:23:49.904Z,99866.95
2019-05-07T15:26:22.026Z,99863.20
2019-05-07T15:29:07.121Z,99864.09
2019-05-07T15:31:55.444Z,99862.23
2019-05-07T15:34:26.464Z,99858.11
2019-05-07T15:36:56.898Z,99857.00
2019-05-07T15:39:27.836Z,99862.96
2019-05-07T15:41:58.574Z,99861.28
2019-05-07T15:44:29.453Z,99859.02
2019-05-07T15:47:02.656Z,99857.25
2019-05-07T15:49:33.084Z,99854.56
2019-05-07T15:52:06.520Z,99853.31
2019-05-07T15:54:37.288Z,99846.19
2019-05-07T15:57:09.807Z,99849.27
2019-05-07T15:59:41.776Z,99853.65
2019-05-07T16:02:27.231Z,99852.95
2019-05-07T16:04:58.027Z,99852.82
2019-05-07T16:07:28.454Z,99853.86
2019-05-07T16:09:59.297Z,99845.06
2019-05-07T16:12:31.828Z,99847.29
2019-05-07T16:15:03.156Z,99846.77
2019-05-07T16:17:38.468Z,99845.77
2019-05-07T16:20:12.062Z,99844.79
2019-05-07T16:22:45.381Z,99844.97
2019-05-07T16:25:16.200Z,99840.52
2019-05-07T16:27:47.140Z,99844.59
2019-05-07T16:30:17.733Z,99839.20
2019-05-07T16:32:48.535Z,99835.16
2019-05-07T16:35:19.361Z,99835.11
2019-05-07T16:37:52.223Z,99834.36
2019-05-07T16:40:23.082Z,99840.77
2019-05-07T16:42:53.918Z,99840.34
2019-05-07T16:45:24.527Z,99835.31
2019-05-07T16:47:54.968Z,99833.97
2019-05-07T16:50:25.399Z,99830.16
2019-05-07T16:52:55.915Z,99829.16
2019-05-07T16:55:36.823Z,99827.67
2019-05-07T16:58:15.353Z,99833.97
2019-05-07T17:00:47.931Z,99825.43
2019-05-07T17:03:23.494Z,99826.23
2019-05-07T17:05:53.921Z,99825.89
2019-05-07T17:08:58.573Z,99830.95
2019-05-07T17:11:29.016Z,99828.39
2019-05-07T17:13:59.451Z,99833.30
2019-05-07T17:16:31.703Z,99831.31
2019-05-07T17:19:02.716Z,99827.88
2019-05-07T17:21:33.592Z,99824.88
2019-05-07T17:24:04.956Z,99824.39
2019-05-07T17:26:35.391Z,99833.13
2019-05-07T17:29:06.949Z,99824.78
2019-05-07T17:31:37.371Z,99833.17
2019-05-07T17:34:07.801Z,99828.14
2019-05-07T17:36:38.310Z,99828.00
2019-05-07T17:39:11.978Z,99817.79
2019-05-07T17:41:43.096Z,99822.81
2019-05-07T17:44:13.772Z,99818.98
2019-05-07T17:46:46.159Z,99825.51
2019-05-07T17:49:17.080Z,99823.83
2019-05-07T17:51:47.566Z,99819.00
2019-05-07T17:54:18.025Z,99821.52
2019-05-07T17:56:48.466Z,99822.55
2019-05-07T17:59:19.936Z,99819.22
2019-05-07T18:02:09.913Z,99824.55
2019-05-07T18:04:51.046Z,99808.33
2019-05-07T18:07:14.879Z,99811.00
2019-05-07T18:09:49.967Z,99815.51
2019-05-07T18:12:22.520Z,99806.64
2019-05-07T18:14:53.132Z,99810.83
2019-05-07T18:17:51.661Z,99808.80
2019-05-07T18:20:22.283Z,99807.15
2019-05-07T18:22:53.105Z,99806.48
2019-05-07T18:25:23.937Z,99803.48
2019-05-07T18:27:56.481Z,99810.86
2019-05-07T18:30:29.656Z,99802.14
2019-05-07T18:33:22.129Z,99806.52
2019-05-07T18:35:52.755Z,99806.18
2019-05-07T18:38:23.547Z,99803.17
2019-05-07T18:40:53.988Z,99798.80
2019-05-07T18:43:24.882Z,99804.98
2019-05-07T18:46:06.173Z,99799.46
2019-05-07T18:48:37.187Z,99810.03
2019-05-07T18:51:07.938Z,99804.98
2019-05-07T18:53:38.372Z,99808.31
2019-05-07T18:56:09.703Z,99804.84
2019-05-07T18:58:42.451Z,99804.14
2019-05-07T19:01:15.987Z,99800.16
2019-05-07T19:03:46.946Z,99800.33
2019-05-07T19:06:17.398Z,99795.44
2019-05-07T19:08:50.115Z,99799.47
2019-05-07T19:11:22.884Z,99796.63
2019-05-07T19:13:56.015Z,99793.78
2019-05-07T19:16:25.935Z,99787.09
2019-05-07T19:18:56.790Z,99791.45
2019-05-07T19:21:29.210Z,99795.13
2019-05-07T19:23:59.703Z,99800.15
2019-05-07T19:26:30.535Z,99796.47
2019-05-07T19:29:02.552Z,99801.31
2019-05-07T19:31:33.105Z,99802.14
2019-05-07T19:34:03.564Z,99799.80
2019-05-07T19:36:34.327Z,99802.97
2019-05-07T19:39:07.561Z,99796.09
2019-05-07T19:41:38.039Z,99801.62
2019-05-07T19:44:09.198Z,99800.27
2019-05-07T19:46:40.288Z,99802.25
2019-05-07T19:49:10.726Z,99802.42
2019-05-07T19:51:42.829Z,99795.05
2019-05-07T19:54:13.392Z,99793.67
2019-05-07T19:56:44.472Z,99796.01
2019-05-07T19:59:15.641Z,99796.01
2019-05-07T20:01:51.436Z,99791.98
2019-05-07T20:04:21.938Z,99787.45
2019-05-07T20:06:52.387Z,99788.45
2019-05-07T20:09:27.034Z,99789.80
2019-05-07T20:11:57.449Z,99789.66
2019-05-07T20:14:29.612Z,99786.13
2019-05-07T20:17:00.177Z,99783.91
2019-05-07T20:19:32.662Z,99781.94
2019-05-07T20:22:03.320Z,99774.91
2019-05-07T20:24:33.828Z,99776.91
2019-05-07T20:27:04.276Z,99774.72
2019-05-07T20:29:37.318Z,99774.49
2019-05-07T20:32:08.150Z,99771.31
2019-05-07T20:34:38.650Z,99777.38
2019-05-07T20:37:09.342Z,99770.19
2019-05-07T20:39:39.846Z,99774.88
2019-05-07T20:42:12.355Z,99768.97
2019-05-07T20:44:43.183Z,99765.30
2019-05-07T20:47:14.029Z,99771.81
2019-05-07T20:49:44.458Z,99758.45
2019-05-07T20:52:16.048Z,99755.58
2019-05-07T20:55:07.601Z,99759.22
2019-05-07T20:57:42.652Z,99757.08
2019-05-07T21:00:26.908Z,99753.70
2019-05-07T21:03:15.523Z,99753.34
2019-05-07T21:05:45.996Z,99754.66
2019-05-07T21:08:16.422Z,99748.31
2019-05-07T21:10:46.856Z,99747.62
2019-05-07T21:13:30.042Z,99749.64
2019-05-07T21:15:49.831Z,99739.58
2019-05-07T21:18:22.950Z,99735.22
2019-05-07T21:20:53.281Z,99735.55
2019-05-07T21:23:23.699Z,99732.83
2019-05-07T21:25:54.115Z,99731.16
2019-05-07T21:28:24.782Z,99723.77
2019-05-07T21:30:55.271Z,99730.91
2019-05-07T21:33:26.067Z,99732.88
2019-05-07T21:35:56.908Z,99729.67
2019-05-07T21:38:28.053Z,99730.84
2019-05-07T21:40:58.803Z,99721.93
2019-05-07T21:43:29.631Z,99718.77
2019-05-07T21:46:02.295Z,99718.09
2019-05-07T21:48:32.887Z,99718.70
2019-05-07T21:51:03.469Z,99707.23
2019-05-07T21:53:53.744Z,99707.39
2019-05-07T21:56:49.464Z,99706.41
2019-05-07T21:59:22.163Z,99705.73
2019-05-07T22:01:56.437Z,99694.23
2019-05-07T22:04:27.435Z,99696.67
2019-05-07T22:06:57.864Z,99688.14
2019-05-07T22:09:28.357Z,99685.89
2019-05-07T22:11:59.104Z,99689.37
2019-05-07T22:14:32.833Z,99688.35
2019-05-07T22:17:03.406Z,99689.02
2019-05-07T22:19:33.936Z,99690.64
2019-05-07T22:22:04.339Z,99680.61
2019-05-07T22:24:35.450Z,99671.25
2019-05-07T22:27:06.293Z,99671.52
2019-05-07T22:29:36.764Z,99662.98
2019-05-07T22:32:32.312Z,99661.88
2019-05-07T22:35:12.048Z,99658.47
2019-05-07T22:37:42.561Z,99661.55
2019-05-07T22:40:13.112Z,99655.02
2019-05-07T22:42:43.604Z,99654.44
2019-05-07T22:45:14.705Z,99658.52
2019-05-07T22:47:45.131Z,99652.30
2019-05-07T22:50:15.576Z,99646.30
2019-05-07T22:52:46.077Z,99649.63
2019-05-07T22:55:16.498Z,99645.83
2019-05-07T22:58:04.094Z,99647.28
2019-05-07T23:00:48.245Z,99641.13
2019-05-07T23:03:19.024Z,99644.11
2019-05-07T23:05:52.229Z,99632.00
2019-05-07T23:08:22.279Z,99633.30
2019-05-07T23:10:53.153Z,99625.66
2019-05-07T23:13:23.572Z,99627.58
2019-05-07T23:15:54.494Z,99620.26
2019-05-07T23:18:25.327Z,99614.58
2019-05-07T23:20:56.127Z,99612.58
2019-05-07T23:23:26.900Z,99605.03
2019-05-07T23:25:57.702Z,99598.34
2019-05-07T23:28:28.128Z,99591.52
2019-05-07T23:30:58.867Z,99592.34
2019-05-07T23:33:29.412Z,99594.30
2019-05-07T23:36:02.158Z,99592.04
2019-05-07T23:38:32.254Z,99588.86
2019-05-07T23:41:22.307Z,99596.92
2019-05-07T23:44:12.470Z,99586.52
2019-05-07T23:46:44.885Z,99591.48
2019-05-07T23:49:15.785Z,99590.11
2019-05-07T23:51:46.497Z,99583.62
2019-05-07T23:54:17.288Z,99585.34
2019-05-07T23:57:01.807Z,99586.47
2019-05-07T23:59:22.172Z,99578.34
